createdAt,value
2023-04-15T00:00:01.097Z,5.64
2023-04-15T00:01:01.158Z,5.57
2023-04-15T00:02:01.137Z,5.53
2023-04-15T00:03:01.186Z,5.48
2023-04-15T00:04:01.134Z,5.48
2023-04-15T00:05:01.037Z,5.47
2023-04-15T00:06:01.055Z,5.46
2023-04-15T00:07:01.022Z,5.43
2023-04-15T00:08:01.019Z,5.44
2023-04-15T00:09:01.341Z,5.46
2023-04-15T00:10:01.002Z,5.48
2023-04-15T00:11:01.001Z,5.44
2023-04-15T00:12:01.002Z,5.48
2023-04-15T00:13:00.965Z,5.46
2023-04-15T00:14:00.969Z,5.44
2023-04-15T00:15:00.949Z,5.43
2023-04-15T00:16:00.944Z,5.46
2023-04-15T00:17:00.968Z,5.47
2023-04-15T00:18:00.952Z,5.53
2023-04-15T00:19:01.107Z,5.53
2023-04-15T00:20:00.893Z,5.51
2023-04-15T00:21:00.887Z,5.51
2023-04-15T00:22:00.900Z,5.47
2023-04-15T00:23:00.858Z,5.46
2023-04-15T00:24:00.857Z,5.43
2023-04-15T00:25:00.848Z,5.39
2023-04-15T00:26:00.842Z,5.36
2023-04-15T00:27:00.845Z,5.36
2023-04-15T00:28:00.823Z,5.35
2023-04-15T00:29:00.996Z,5.36
2023-04-15T00:30:00.797Z,5.35
2023-04-15T00:31:00.824Z,5.35
2023-04-15T00:32:00.794Z,5.36
2023-04-15T00:33:00.806Z,5.35
2023-04-15T00:34:00.765Z,5.39
2023-04-15T00:35:00.752Z,5.44
2023-04-15T00:36:00.747Z,5.51
2023-04-15T00:37:00.744Z,5.54
2023-04-15T00:38:00.714Z,5.57
2023-04-15T00:39:00.914Z,5.61
2023-04-15T00:40:00.700Z,5.64
2023-04-15T00:41:00.677Z,5.65
2023-04-15T00:42:00.713Z,5.64
2023-04-15T00:43:00.664Z,5.62
2023-04-15T00:44:00.654Z,5.61
2023-04-15T00:45:00.641Z,5.57
2023-04-15T00:46:00.687Z,5.56
2023-04-15T00:47:00.645Z,5.53
2023-04-15T00:48:00.701Z,5.54
2023-04-15T00:49:00.804Z,5.51
2023-04-15T00:50:00.614Z,5.50
2023-04-15T00:51:00.574Z,5.56
2023-04-15T00:52:00.598Z,5.51
2023-04-15T00:53:00.563Z,5.53
2023-04-15T00:54:00.561Z,5.47
2023-04-15T00:55:00.545Z,5.44
2023-04-15T00:56:00.548Z,5.41
2023-04-15T00:57:00.532Z,5.38
2023-04-15T00:58:00.530Z,5.33
2023-04-15T00:59:00.708Z,5.30
2023-04-15T01:00:00.530Z,5.28
2023-04-15T01:01:00.470Z,5.25
2023-04-15T01:02:00.591Z,5.20
2023-04-15T01:03:00.680Z,5.20
2023-04-15T01:04:00.565Z,5.18
2023-04-15T01:05:00.459Z,5.17
2023-04-15T01:06:03.400Z,5.17
2023-04-15T01:07:00.446Z,5.11
2023-04-15T01:08:00.418Z,5.07
2023-04-15T01:09:00.736Z,5.04
2023-04-15T01:10:00.389Z,5.07
2023-04-15T01:11:00.374Z,5.11
2023-04-15T01:12:00.383Z,5.15
2023-04-15T01:13:00.350Z,5.17
2023-04-15T01:14:00.362Z,5.20
2023-04-15T01:15:00.341Z,5.23
2023-04-15T01:16:00.401Z,5.20
2023-04-15T01:17:00.503Z,5.20
2023-04-15T01:18:00.476Z,5.20
2023-04-15T01:19:00.559Z,5.15
2023-04-15T01:20:00.321Z,5.14
2023-04-15T01:21:00.276Z,5.11
2023-04-15T01:22:00.312Z,5.07
2023-04-15T01:23:00.273Z,5.00
2023-04-15T01:24:00.253Z,5.00
2023-04-15T01:25:00.233Z,5.00
2023-04-15T01:26:00.222Z,5.00
2023-04-15T01:27:00.240Z,5.00
2023-04-15T01:28:00.218Z,5.05
2023-04-15T01:29:00.439Z,5.08
2023-04-15T01:30:00.176Z,5.11
2023-04-15T01:31:00.196Z,5.11
2023-04-15T01:32:00.214Z,5.12
2023-04-15T01:33:00.233Z,5.10
2023-04-15T01:34:00.212Z,5.11
2023-04-15T01:35:00.150Z,5.12
2023-04-15T01:36:00.128Z,5.20
2023-04-15T01:37:00.149Z,5.20
2023-04-15T01:38:00.140Z,5.20
2023-04-15T01:39:00.337Z,5.20
2023-04-15T01:40:00.138Z,5.18
2023-04-15T01:41:00.054Z,5.17
2023-04-15T01:42:00.091Z,5.18
2023-04-15T01:43:00.049Z,5.17
2023-04-15T01:44:00.036Z,5.18
2023-04-15T01:45:00.025Z,5.14
2023-04-15T01:46:00.030Z,5.10
2023-04-15T01:47:00.051Z,5.08
2023-04-15T01:48:00.047Z,5.05
2023-04-15T01:49:00.232Z,5.04
2023-04-15T01:49:59.986Z,5.00
2023-04-15T01:50:59.960Z,4.99
2023-04-15T01:51:59.990Z,4.94
2023-04-15T01:52:59.948Z,4.97
2023-04-15T01:53:59.949Z,4.93
2023-04-15T01:54:59.960Z,4.93
2023-04-15T01:55:59.913Z,4.90
2023-04-15T01:56:59.916Z,4.93
2023-04-15T01:57:59.952Z,4.93
2023-04-15T01:59:00.050Z,4.92
2023-04-15T01:59:59.881Z,4.96
2023-04-15T02:00:59.902Z,4.94
2023-04-15T02:01:59.941Z,4.92
2023-04-15T02:02:59.925Z,4.93
2023-04-15T02:03:59.876Z,4.89
2023-04-15T02:04:59.832Z,4.90
2023-04-15T02:05:59.813Z,4.87
2023-04-15T02:06:59.836Z,4.87
2023-04-15T02:07:59.811Z,4.82
2023-04-15T02:09:00.046Z,4.80
2023-04-15T02:09:59.790Z,4.77
2023-04-15T02:10:59.763Z,4.78
2023-04-15T02:11:59.748Z,4.78
2023-04-15T02:12:59.787Z,4.78
2023-04-15T02:13:59.740Z,4.77
2023-04-15T02:14:59.722Z,4.74
2023-04-15T02:15:59.747Z,4.71
2023-04-15T02:16:59.761Z,4.71
2023-04-15T02:17:59.703Z,4.71
2023-04-15T02:19:00.023Z,4.70
2023-04-15T02:19:59.667Z,4.73
2023-04-15T02:20:59.676Z,4.70
2023-04-15T02:21:59.663Z,4.68
2023-04-15T02:22:59.664Z,4.70
2023-04-15T02:23:59.623Z,4.68
2023-04-15T02:24:59.632Z,4.68
2023-04-15T02:25:59.606Z,4.68
2023-04-15T02:26:59.603Z,4.67
2023-04-15T02:27:59.615Z,4.67
2023-04-15T02:28:59.848Z,4.63
2023-04-15T02:29:59.562Z,4.62
2023-04-15T02:30:59.568Z,4.66
2023-04-15T02:31:59.586Z,4.63
2023-04-15T02:32:59.581Z,4.63
2023-04-15T02:33:59.525Z,4.70
2023-04-15T02:34:59.529Z,4.68
2023-04-15T02:35:59.510Z,4.68
2023-04-15T02:36:59.509Z,4.73
2023-04-15T02:37:59.599Z,4.73
2023-04-15T02:38:59.673Z,4.73
2023-04-15T02:39:59.464Z,4.74
2023-04-15T02:40:59.469Z,4.75
2023-04-15T02:41:59.448Z,4.78
2023-04-15T02:42:59.464Z,4.80
2023-04-15T02:43:59.434Z,4.82
2023-04-15T02:44:59.431Z,4.84
2023-04-15T02:45:59.429Z,4.82
2023-04-15T02:46:59.410Z,4.86
2023-04-15T02:47:59.470Z,4.84
2023-04-15T02:48:59.710Z,4.87
2023-04-15T02:49:59.366Z,4.89
2023-04-15T02:50:59.355Z,4.89
2023-04-15T02:51:59.339Z,4.92
2023-04-15T02:52:59.397Z,4.90
2023-04-15T02:53:59.313Z,4.93
2023-04-15T02:54:59.322Z,4.93
2023-04-15T02:55:59.327Z,4.93
2023-04-15T02:56:59.297Z,4.93
2023-04-15T02:57:59.292Z,4.89
2023-04-15T02:58:59.376Z,4.92
2023-04-15T02:59:59.253Z,4.90
2023-04-15T03:00:59.301Z,4.92
2023-04-15T03:01:59.264Z,4.87
2023-04-15T03:02:59.421Z,4.84
2023-04-15T03:03:59.314Z,4.82
2023-04-15T03:04:59.232Z,4.80
2023-04-15T03:05:59.201Z,4.75
2023-04-15T03:06:59.194Z,4.73
2023-04-15T03:07:59.215Z,4.71
2023-04-15T03:08:59.354Z,4.70
2023-04-15T03:09:59.152Z,4.73
2023-04-15T03:10:59.154Z,4.68
2023-04-15T03:11:59.137Z,4.68
2023-04-15T03:12:59.157Z,4.67
2023-04-15T03:13:59.117Z,4.63
2023-04-15T03:14:59.119Z,4.70
2023-04-15T03:15:59.116Z,4.70
2023-04-15T03:16:59.101Z,4.70
2023-04-15T03:17:59.142Z,4.71
2023-04-15T03:18:59.180Z,4.71
2023-04-15T03:19:59.132Z,4.67
2023-04-15T03:20:59.043Z,4.66
2023-04-15T03:21:59.027Z,4.67
2023-04-15T03:22:59.055Z,4.63
2023-04-15T03:23:59.006Z,4.63
2023-04-15T03:24:59.004Z,4.62
2023-04-15T03:25:59.001Z,4.59
2023-04-15T03:26:58.985Z,4.60
2023-04-15T03:27:58.995Z,4.59
2023-04-15T03:28:59.072Z,4.56
2023-04-15T03:29:58.947Z,4.52
2023-04-15T03:30:59.021Z,4.49
2023-04-15T03:31:58.932Z,4.42
2023-04-15T03:32:58.998Z,4.40
2023-04-15T03:33:58.904Z,4.34
2023-04-15T03:34:58.913Z,4.31
2023-04-15T03:35:58.895Z,4.32
2023-04-15T03:36:58.882Z,4.31
2023-04-15T03:37:58.916Z,4.31
2023-04-15T03:38:58.976Z,4.34
2023-04-15T03:39:58.846Z,4.42
2023-04-15T03:40:58.870Z,4.48
2023-04-15T03:41:58.829Z,4.49
2023-04-15T03:42:58.860Z,4.52
2023-04-15T03:43:58.796Z,4.55
2023-04-15T03:44:58.807Z,4.55
2023-04-15T03:46:00.717Z,4.56
2023-04-15T03:46:58.792Z,4.58
2023-04-15T03:48:07.335Z,4.59
2023-04-15T03:48:58.800Z,4.66
2023-04-15T03:49:58.746Z,4.63
2023-04-15T03:50:58.743Z,4.68
2023-04-15T03:51:58.718Z,4.70
2023-04-15T03:52:58.726Z,4.71
2023-04-15T03:53:58.675Z,4.73
2023-04-15T03:54:58.695Z,4.74
2023-04-15T03:55:58.680Z,4.75
2023-04-15T03:56:58.687Z,4.82
2023-04-15T03:57:58.632Z,4.86
2023-04-15T03:58:58.989Z,4.87
2023-04-15T03:59:58.607Z,4.92
2023-04-15T04:00:58.584Z,4.94
2023-04-15T04:01:58.630Z,4.96
2023-04-15T04:02:58.785Z,4.97
2023-04-15T04:03:58.717Z,4.99
2023-04-15T04:04:58.560Z,4.99
2023-04-15T04:05:58.541Z,5.02
2023-04-15T04:06:58.517Z,5.02
2023-04-15T04:07:58.519Z,5.05
2023-04-15T04:08:58.509Z,5.05
2023-04-15T04:09:58.485Z,5.08
2023-04-15T04:10:58.479Z,5.10
2023-04-15T04:11:58.479Z,5.11
2023-04-15T04:12:58.478Z,5.12
2023-04-15T04:13:58.445Z,5.10
2023-04-15T04:14:58.449Z,5.14
2023-04-15T04:15:58.500Z,5.11
2023-04-15T04:16:58.434Z,5.10
2023-04-15T04:17:58.503Z,5.10
2023-04-15T04:18:58.414Z,5.10
2023-04-15T04:19:58.385Z,5.08
2023-04-15T04:20:58.460Z,5.10
2023-04-15T04:21:58.361Z,5.08
2023-04-15T04:22:58.370Z,5.07
2023-04-15T04:23:58.350Z,5.08
2023-04-15T04:24:58.331Z,5.07
2023-04-15T04:25:58.321Z,5.07
2023-04-15T04:26:58.321Z,5.07
2023-04-15T04:27:58.328Z,5.04
2023-04-15T04:28:58.364Z,5.05
2023-04-15T04:29:58.288Z,5.05
2023-04-15T04:30:58.273Z,5.05
2023-04-15T04:31:58.277Z,5.04
2023-04-15T04:32:58.355Z,5.07
2023-04-15T04:33:58.233Z,5.08
2023-04-15T04:34:58.234Z,5.08
2023-04-15T04:35:58.234Z,5.07
2023-04-15T04:36:58.216Z,5.10
2023-04-15T04:37:58.210Z,5.08
2023-04-15T04:38:58.279Z,5.08
2023-04-15T04:39:58.169Z,5.10
2023-04-15T04:40:58.165Z,5.08
2023-04-15T04:41:58.163Z,5.07
2023-04-15T04:42:58.162Z,5.10
2023-04-15T04:43:58.127Z,5.11
2023-04-15T04:44:58.140Z,5.11
2023-04-15T04:45:58.137Z,5.10
2023-04-15T04:46:58.109Z,5.10
2023-04-15T04:47:58.150Z,5.14
2023-04-15T04:48:58.094Z,5.17
2023-04-15T04:49:58.104Z,5.18
2023-04-15T04:50:58.065Z,5.21
2023-04-15T04:51:58.049Z,5.23
2023-04-15T04:52:58.058Z,5.23
2023-04-15T04:53:58.042Z,5.26
2023-04-15T04:54:58.022Z,5.28
2023-04-15T04:55:58.001Z,5.30
2023-04-15T04:56:58.050Z,5.32
2023-04-15T04:57:58.004Z,5.33
2023-04-15T04:58:58.033Z,5.38
2023-04-15T04:59:58.011Z,5.36
2023-04-15T05:00:57.995Z,5.41
2023-04-15T05:01:57.968Z,5.44
2023-04-15T05:02:58.120Z,5.44
2023-04-15T05:03:58.009Z,5.47
2023-04-15T05:04:57.923Z,5.48
2023-04-15T05:05:57.933Z,5.51
2023-04-15T05:06:57.900Z,5.51
2023-04-15T05:07:57.899Z,5.57
2023-04-15T05:08:57.906Z,5.54
2023-04-15T05:09:57.860Z,5.57
2023-04-15T05:10:57.859Z,5.62
2023-04-15T05:11:57.880Z,5.62
2023-04-15T05:12:57.849Z,5.64
2023-04-15T05:13:57.818Z,5.65
2023-04-15T05:14:57.885Z,5.69
2023-04-15T05:15:57.852Z,5.73
2023-04-15T05:16:57.799Z,5.75
2023-04-15T05:17:58.095Z,5.82
2023-04-15T05:18:57.777Z,5.82
2023-04-15T05:19:57.771Z,5.84
2023-04-15T05:20:57.845Z,5.86
2023-04-15T05:21:57.750Z,5.90
2023-04-15T05:22:57.757Z,5.94
2023-04-15T05:23:57.777Z,5.93
2023-04-15T05:24:57.718Z,5.98
2023-04-15T05:25:57.713Z,6.02
2023-04-15T05:26:57.773Z,6.05
2023-04-15T05:27:57.697Z,6.11
2023-04-15T05:28:57.691Z,6.11
2023-04-15T05:29:57.704Z,6.14
2023-04-15T05:30:57.672Z,6.16
2023-04-15T05:31:57.642Z,6.19
2023-04-15T05:32:57.789Z,6.26
2023-04-15T05:33:57.623Z,6.28
2023-04-15T05:34:57.612Z,6.30
2023-04-15T05:35:57.660Z,6.28
2023-04-15T05:36:57.593Z,6.31
2023-04-15T05:37:57.616Z,6.33
2023-04-15T05:38:57.649Z,6.35
2023-04-15T05:39:57.577Z,6.33
2023-04-15T05:40:57.554Z,6.36
2023-04-15T05:41:57.625Z,6.35
2023-04-15T05:42:57.555Z,6.36
2023-04-15T05:43:57.519Z,6.35
2023-04-15T05:44:57.566Z,6.33
2023-04-15T05:45:57.549Z,6.36
2023-04-15T05:46:57.500Z,6.41
2023-04-15T05:47:57.583Z,6.41
2023-04-15T05:48:57.476Z,6.42
2023-04-15T05:49:57.459Z,6.45
2023-04-15T05:50:57.505Z,6.46
2023-04-15T05:51:57.439Z,6.48
2023-04-15T05:52:57.453Z,6.46
2023-04-15T05:53:57.425Z,6.52
2023-04-15T05:54:57.426Z,6.56
2023-04-15T05:55:57.409Z,6.56
2023-04-15T05:56:57.398Z,6.59
2023-04-15T05:57:57.403Z,6.62
2023-04-15T05:58:57.374Z,6.62
2023-04-15T05:59:57.423Z,6.63
2023-04-15T06:00:57.368Z,6.64
2023-04-15T06:01:57.408Z,6.62
2023-04-15T06:02:57.460Z,6.62
2023-04-15T06:03:57.462Z,6.63
2023-04-15T06:04:57.366Z,6.63
2023-04-15T06:05:57.345Z,6.63
2023-04-15T06:06:57.298Z,6.59
2023-04-15T06:07:57.307Z,6.60
2023-04-15T06:08:57.299Z,6.60
2023-04-15T06:09:57.260Z,6.62
2023-04-15T06:10:57.259Z,6.62
2023-04-15T06:11:57.266Z,6.63
2023-04-15T06:12:57.262Z,6.63
2023-04-15T06:13:57.245Z,6.62
2023-04-15T06:14:58.900Z,6.59
2023-04-15T06:15:57.254Z,6.59
2023-04-15T06:16:57.183Z,6.59
2023-04-15T06:17:57.262Z,6.56
2023-04-15T06:18:57.188Z,6.54
2023-04-15T06:19:57.158Z,6.51
2023-04-15T06:20:57.160Z,6.49
2023-04-15T06:21:57.149Z,6.51
2023-04-15T06:22:57.134Z,6.52
2023-04-15T06:23:57.168Z,6.49
2023-04-15T06:24:57.109Z,6.49
2023-04-15T06:25:57.093Z,6.48
2023-04-15T06:26:57.100Z,6.49
2023-04-15T06:27:57.083Z,6.46
2023-04-15T06:28:57.096Z,6.41
2023-04-15T06:29:57.085Z,6.42
2023-04-15T06:30:57.058Z,6.39
2023-04-15T06:31:57.092Z,6.38
2023-04-15T06:32:57.073Z,6.42
2023-04-15T06:33:57.063Z,6.42
2023-04-15T06:34:57.000Z,6.41
2023-04-15T06:35:57.014Z,6.44
2023-04-15T06:36:56.981Z,6.42
2023-04-15T06:37:56.983Z,6.45
2023-04-15T06:38:57.019Z,6.46
2023-04-15T06:39:56.959Z,6.41
2023-04-15T06:40:56.935Z,6.42
2023-04-15T06:41:56.955Z,6.39
2023-04-15T06:42:56.939Z,6.42
2023-04-15T06:43:56.938Z,6.44
2023-04-15T06:44:56.915Z,6.41
2023-04-15T06:45:56.970Z,6.39
2023-04-15T06:46:56.879Z,6.41
2023-04-15T06:47:57.004Z,6.41
2023-04-15T06:48:56.881Z,6.41
2023-04-15T06:49:56.854Z,6.46
2023-04-15T06:50:56.843Z,6.45
2023-04-15T06:51:56.847Z,6.48
2023-04-15T06:52:56.818Z,6.48
2023-04-15T06:53:56.841Z,6.51
2023-04-15T06:54:56.808Z,6.51
2023-04-15T06:55:56.790Z,6.51
2023-04-15T06:56:56.787Z,6.57
2023-04-15T06:57:56.775Z,6.59
2023-04-15T06:58:56.769Z,6.62
2023-04-15T06:59:56.773Z,6.64
2023-04-15T07:00:56.796Z,6.69
2023-04-15T07:01:56.788Z,6.74
2023-04-15T07:02:56.767Z,6.78
2023-04-15T07:03:56.778Z,6.81
2023-04-15T07:04:56.693Z,6.87
2023-04-15T07:05:56.708Z,6.84
2023-04-15T07:06:56.683Z,6.87
2023-04-15T07:07:56.683Z,6.82
2023-04-15T07:08:56.685Z,6.88
2023-04-15T07:09:56.656Z,6.89
2023-04-15T07:10:56.637Z,6.93
2023-04-15T07:11:56.640Z,6.93
2023-04-15T07:12:56.613Z,6.88
2023-04-15T07:13:56.629Z,6.89
2023-04-15T07:14:56.610Z,6.88
2023-04-15T07:15:56.597Z,6.89
2023-04-15T07:16:56.636Z,6.92
2023-04-15T07:17:56.748Z,6.96
2023-04-15T07:18:56.589Z,6.95
2023-04-15T07:19:56.554Z,6.97
2023-04-15T07:20:56.560Z,7.00
2023-04-15T07:21:56.563Z,7.05
2023-04-15T07:22:56.518Z,7.06
2023-04-15T07:23:56.540Z,7.06
2023-04-15T07:24:56.539Z,7.13
2023-04-15T07:25:56.501Z,7.13
2023-04-15T07:26:57.952Z,7.14
2023-04-15T07:27:56.483Z,7.15
2023-04-15T07:28:56.476Z,7.17
2023-04-15T07:29:56.473Z,7.18
2023-04-15T07:30:56.517Z,7.23
2023-04-15T07:31:56.439Z,7.24
2023-04-15T07:32:56.434Z,7.23
2023-04-15T07:33:56.444Z,7.20
2023-04-15T07:34:56.393Z,7.18
2023-04-15T07:35:56.389Z,7.17
2023-04-15T07:36:56.385Z,7.15
2023-04-15T07:37:56.387Z,7.11
2023-04-15T07:38:56.401Z,7.13
2023-04-15T07:39:56.356Z,7.10
2023-04-15T07:40:56.363Z,7.13
2023-04-15T07:41:56.329Z,7.07
2023-04-15T07:42:56.337Z,7.05
2023-04-15T07:43:56.326Z,7.03
2023-04-15T07:44:56.293Z,7.10
2023-04-15T07:45:56.329Z,7.05
2023-04-15T07:46:56.277Z,7.02
2023-04-15T07:47:56.298Z,7.05
2023-04-15T07:48:56.301Z,7.06
2023-04-15T07:49:56.258Z,7.05
2023-04-15T07:50:56.242Z,7.07
2023-04-15T07:51:56.232Z,7.06
2023-04-15T07:52:56.225Z,7.17
2023-04-15T07:53:56.240Z,7.18
2023-04-15T07:54:56.199Z,7.21
2023-04-15T07:55:56.199Z,7.24
2023-04-15T07:56:56.183Z,7.23
2023-04-15T07:57:56.201Z,7.18
2023-04-15T07:58:56.168Z,7.15
2023-04-15T07:59:56.154Z,7.14
2023-04-15T08:00:56.135Z,7.17
2023-04-15T08:01:56.163Z,7.13
2023-04-15T08:02:56.312Z,7.18
2023-04-15T08:03:56.197Z,7.18
2023-04-15T08:04:56.124Z,7.15
2023-04-15T08:05:56.103Z,7.21
2023-04-15T08:06:56.103Z,7.23
2023-04-15T08:07:56.099Z,7.23
2023-04-15T08:08:56.058Z,7.18
2023-04-15T08:09:56.055Z,7.17
2023-04-15T08:10:56.055Z,7.18
2023-04-15T08:11:56.031Z,7.13
2023-04-15T08:12:56.030Z,7.11
2023-04-15T08:13:56.016Z,7.06
2023-04-15T08:14:56.000Z,7.10
2023-04-15T08:15:56.018Z,7.07
2023-04-15T08:16:55.996Z,7.11
2023-04-15T08:17:56.001Z,7.11
2023-04-15T08:18:55.956Z,7.11
2023-04-15T08:19:55.959Z,7.10
2023-04-15T08:20:55.929Z,7.14
2023-04-15T08:21:55.934Z,7.10
2023-04-15T08:22:55.961Z,7.10
2023-04-15T08:23:55.925Z,7.11
2023-04-15T08:24:55.885Z,7.10
2023-04-15T08:25:55.892Z,7.11
2023-04-15T08:26:55.865Z,7.14
2023-04-15T08:27:55.858Z,7.14
2023-04-15T08:28:55.903Z,7.13
2023-04-15T08:29:55.837Z,7.14
2023-04-15T08:30:55.819Z,7.14
2023-04-15T08:31:55.881Z,7.14
2023-04-15T08:32:55.840Z,7.13
2023-04-15T08:33:55.837Z,7.15
2023-04-15T08:34:55.800Z,7.14
2023-04-15T08:35:55.798Z,7.17
2023-04-15T08:36:55.770Z,7.20
2023-04-15T08:37:55.803Z,7.17
2023-04-15T08:38:55.816Z,7.21
2023-04-15T08:39:55.746Z,7.18
2023-04-15T08:40:55.748Z,7.21
2023-04-15T08:41:55.716Z,7.25
2023-04-15T08:42:55.702Z,7.20
2023-04-15T08:43:55.737Z,7.18
2023-04-15T08:44:55.683Z,7.18
2023-04-15T08:45:55.678Z,7.15
2023-04-15T08:46:55.703Z,7.10
2023-04-15T08:47:55.674Z,7.07
2023-04-15T08:48:55.737Z,7.07
2023-04-15T08:49:55.673Z,7.05
2023-04-15T08:50:55.624Z,7.03
2023-04-15T08:51:55.623Z,7.05
2023-04-15T08:52:55.641Z,7.07
2023-04-15T08:53:55.625Z,7.05
2023-04-15T08:54:55.590Z,7.02
2023-04-15T08:55:55.594Z,7.02
2023-04-15T08:56:55.606Z,7.00
2023-04-15T08:57:55.565Z,7.00
2023-04-15T08:58:55.639Z,7.02
2023-04-15T08:59:55.549Z,6.99
2023-04-15T09:00:55.555Z,6.96
2023-04-15T09:01:55.595Z,7.02
2023-04-15T09:02:55.584Z,6.99
2023-04-15T09:03:55.624Z,6.99
2023-04-15T09:04:55.507Z,6.95
2023-04-15T09:05:55.477Z,6.96
2023-04-15T09:06:55.478Z,6.99
2023-04-15T09:07:55.520Z,6.97
2023-04-15T09:08:55.502Z,6.96
2023-04-15T09:09:55.438Z,6.97
2023-04-15T09:10:55.425Z,7.02
2023-04-15T09:11:55.424Z,7.02
2023-04-15T09:12:55.416Z,7.02
2023-04-15T09:13:55.428Z,7.06
2023-04-15T09:14:55.389Z,7.05
2023-04-15T09:15:55.383Z,7.05
2023-04-15T09:16:55.477Z,7.06
2023-04-15T09:17:55.411Z,7.05
2023-04-15T09:18:55.391Z,7.03
2023-04-15T09:19:55.348Z,6.99
2023-04-15T09:20:55.324Z,6.97
2023-04-15T09:21:57.993Z,6.97
2023-04-15T09:22:55.336Z,7.00
2023-04-15T09:23:55.344Z,6.96
2023-04-15T09:24:55.346Z,6.97
2023-04-15T09:25:55.275Z,7.00
2023-04-15T09:26:55.284Z,7.06
2023-04-15T09:27:55.317Z,7.10
2023-04-15T09:28:55.239Z,7.13
2023-04-15T09:29:55.256Z,7.15
2023-04-15T09:30:55.270Z,7.17
2023-04-15T09:31:55.217Z,7.18
2023-04-15T09:32:55.243Z,7.14
2023-04-15T09:33:55.199Z,7.17
2023-04-15T09:34:55.180Z,7.13
2023-04-15T09:35:55.177Z,7.17
2023-04-15T09:36:55.172Z,7.20
2023-04-15T09:37:55.187Z,7.18
2023-04-15T09:38:55.153Z,7.18
2023-04-15T09:39:55.146Z,7.17
2023-04-15T09:40:55.128Z,7.15
2023-04-15T09:41:55.109Z,7.13
2023-04-15T09:42:55.677Z,7.13
2023-04-15T09:43:55.095Z,7.13
2023-04-15T09:44:55.090Z,7.11
2023-04-15T09:45:55.131Z,7.07
2023-04-15T09:46:55.052Z,7.07
2023-04-15T09:47:56.226Z,7.03
2023-04-15T09:48:55.029Z,7.05
2023-04-15T09:49:55.107Z,7.06
2023-04-15T09:50:55.015Z,7.13
2023-04-15T09:52:04.553Z,7.13
2023-04-15T09:52:55.008Z,7.10
2023-04-15T09:53:54.981Z,7.03
2023-04-15T09:54:54.981Z,7.00
2023-04-15T09:55:54.960Z,7.02
2023-04-15T09:56:54.945Z,7.02
2023-04-15T09:57:54.972Z,7.00
2023-04-15T09:58:54.933Z,6.96
2023-04-15T09:59:54.933Z,6.93
2023-04-15T10:00:54.917Z,7.00
2023-04-15T10:01:55.081Z,7.02
2023-04-15T10:02:55.001Z,7.00
2023-04-15T10:03:55.135Z,7.02
2023-04-15T10:04:54.909Z,6.97
2023-04-15T10:05:54.866Z,6.99
2023-04-15T10:06:54.868Z,7.02
2023-04-15T10:07:54.864Z,6.99
2023-04-15T10:08:54.840Z,6.95
2023-04-15T10:09:54.834Z,6.99
2023-04-15T10:10:54.829Z,7.00
2023-04-15T10:11:54.799Z,7.00
2023-04-15T10:12:54.817Z,7.02
2023-04-15T10:13:54.774Z,7.03
2023-04-15T10:14:54.775Z,7.00
2023-04-15T10:15:54.783Z,6.96
2023-04-15T10:16:54.754Z,6.92
2023-04-15T10:17:54.810Z,6.89
2023-04-15T10:18:54.753Z,6.93
2023-04-15T10:19:54.718Z,6.92
2023-04-15T10:20:54.714Z,6.85
2023-04-15T10:21:54.721Z,6.92
2023-04-15T10:22:54.722Z,6.92
2023-04-15T10:23:54.679Z,6.95
2023-04-15T10:24:54.727Z,6.92
2023-04-15T10:25:54.678Z,6.89
2023-04-15T10:26:54.653Z,6.85
2023-04-15T10:27:54.682Z,6.84
2023-04-15T10:28:54.721Z,6.81
2023-04-15T10:29:54.621Z,6.79
2023-04-15T10:30:54.656Z,6.79
2023-04-15T10:31:54.613Z,6.79
2023-04-15T10:32:54.678Z,6.78
2023-04-15T10:33:54.579Z,6.79
2023-04-15T10:34:54.892Z,6.78
2023-04-15T10:35:54.556Z,6.75
2023-04-15T10:36:54.556Z,6.74
2023-04-15T10:37:54.586Z,6.70
2023-04-15T10:38:54.535Z,6.72
2023-04-15T10:39:54.529Z,6.74
2023-04-15T10:40:54.525Z,6.75
2023-04-15T10:41:54.501Z,6.78
2023-04-15T10:42:54.520Z,6.84
2023-04-15T10:43:54.495Z,6.88
2023-04-15T10:44:54.481Z,6.89
2023-04-15T10:45:54.456Z,6.92
2023-04-15T10:46:54.516Z,6.93
2023-04-15T10:47:54.530Z,6.95
2023-04-15T10:48:54.448Z,6.96
2023-04-15T10:49:54.417Z,6.99
2023-04-15T10:50:54.426Z,7.02
2023-04-15T10:51:54.398Z,7.06
2023-04-15T10:52:54.414Z,7.07
2023-04-15T10:53:54.397Z,7.10
2023-04-15T10:54:54.368Z,7.14
2023-04-15T10:55:54.354Z,7.18
2023-04-15T10:56:54.402Z,7.21
2023-04-15T10:57:54.355Z,7.20
2023-04-15T10:58:54.326Z,7.21
2023-04-15T10:59:54.323Z,7.25
2023-04-15T11:00:54.306Z,7.24
2023-04-15T11:01:54.471Z,7.25
2023-04-15T11:02:54.427Z,7.28
2023-04-15T11:03:54.428Z,7.29
2023-04-15T11:04:54.333Z,7.31
2023-04-15T11:05:54.317Z,7.32
2023-04-15T11:06:54.247Z,7.35
2023-04-15T11:07:54.238Z,7.36
2023-04-15T11:08:54.255Z,7.33
2023-04-15T11:09:54.199Z,7.39
2023-04-15T11:10:54.242Z,7.32
2023-04-15T11:11:54.247Z,7.33
2023-04-15T11:12:54.206Z,7.35
2023-04-15T11:13:54.198Z,7.36
2023-04-15T11:14:54.242Z,7.33
2023-04-15T11:15:54.146Z,7.32
2023-04-15T11:16:54.150Z,7.32
2023-04-15T11:17:54.194Z,7.32
2023-04-15T11:18:54.137Z,7.32
2023-04-15T11:19:54.098Z,7.31
2023-04-15T11:20:54.122Z,7.33
2023-04-15T11:21:54.090Z,7.38
2023-04-15T11:23:08.030Z,7.36
2023-04-15T11:23:54.177Z,7.35
2023-04-15T11:24:54.059Z,7.33
2023-04-15T11:25:54.042Z,7.33
2023-04-15T11:26:54.078Z,7.32
2023-04-15T11:27:54.018Z,7.35
2023-04-15T11:28:54.036Z,7.35
2023-04-15T11:29:54.019Z,7.36
2023-04-15T11:30:53.993Z,7.32
2023-04-15T11:31:54.036Z,7.33
2023-04-15T11:32:54.038Z,7.32
2023-04-15T11:33:53.982Z,7.33
2023-04-15T11:34:53.967Z,7.31
2023-04-15T11:35:53.955Z,7.32
2023-04-15T11:36:53.923Z,7.33
2023-04-15T11:37:53.913Z,7.29
2023-04-15T11:38:53.954Z,7.29
2023-04-15T11:39:53.889Z,7.28
2023-04-15T11:40:53.883Z,7.29
2023-04-15T11:41:53.906Z,7.28
2023-04-15T11:42:53.864Z,7.25
2023-04-15T11:43:53.896Z,7.28
2023-04-15T11:44:53.873Z,7.28
2023-04-15T11:45:53.943Z,7.32
2023-04-15T11:46:53.832Z,7.33
2023-04-15T11:47:53.927Z,7.32
2023-04-15T11:48:53.808Z,7.36
2023-04-15T11:49:53.782Z,7.35
2023-04-15T11:50:53.836Z,7.33
2023-04-15T11:51:53.797Z,7.38
2023-04-15T11:52:53.779Z,7.40
2023-04-15T11:53:53.750Z,7.45
2023-04-15T11:54:53.752Z,7.48
2023-04-15T11:55:53.727Z,7.51
2023-04-15T11:56:53.726Z,7.53
2023-04-15T11:57:53.719Z,7.53
2023-04-15T11:58:53.735Z,7.56
2023-04-15T11:59:53.676Z,7.54
2023-04-15T12:00:53.687Z,7.57
2023-04-15T12:01:53.688Z,7.60
2023-04-15T12:02:53.785Z,7.60
2023-04-15T12:03:53.787Z,7.58
2023-04-15T12:04:53.756Z,7.60
2023-04-15T12:05:53.608Z,7.61
2023-04-15T12:06:53.666Z,7.57
2023-04-15T12:07:53.595Z,7.57
2023-04-15T12:08:53.593Z,7.57
2023-04-15T12:09:53.578Z,7.60
2023-04-15T12:10:53.566Z,7.61
2023-04-15T12:11:53.594Z,7.66
2023-04-15T12:12:53.553Z,7.67
2023-04-15T12:13:53.553Z,7.73
2023-04-15T12:14:53.533Z,7.70
2023-04-15T12:15:53.533Z,7.66
2023-04-15T12:16:53.503Z,7.60
2023-04-15T12:17:53.511Z,7.58
2023-04-15T12:18:53.531Z,7.60
2023-04-15T12:19:53.462Z,7.60
2023-04-15T12:20:53.463Z,7.56
2023-04-15T12:21:53.470Z,7.53
2023-04-15T12:22:53.448Z,7.50
2023-04-15T12:23:53.482Z,7.48
2023-04-15T12:24:53.414Z,7.45
2023-04-15T12:25:53.403Z,7.47
2023-04-15T12:26:53.420Z,7.43
2023-04-15T12:27:53.393Z,7.48
2023-04-15T12:28:53.387Z,7.47
2023-04-15T12:29:53.361Z,7.51
2023-04-15T12:30:53.381Z,7.50
2023-04-15T12:31:53.344Z,7.56
2023-04-15T12:32:53.369Z,7.56
2023-04-15T12:33:53.339Z,7.56
2023-04-15T12:34:53.317Z,7.53
2023-04-15T12:35:53.296Z,7.53
2023-04-15T12:36:53.336Z,7.54
2023-04-15T12:37:53.273Z,7.56
2023-04-15T12:38:53.280Z,7.57
2023-04-15T12:39:53.264Z,7.53
2023-04-15T12:40:53.256Z,7.53
2023-04-15T12:41:53.259Z,7.53
2023-04-15T12:42:53.247Z,7.51
2023-04-15T12:43:53.239Z,7.48
2023-04-15T12:44:53.206Z,7.50
2023-04-15T12:45:53.199Z,7.50
2023-04-15T12:46:53.259Z,7.53
2023-04-15T12:47:53.207Z,7.53
2023-04-15T12:48:53.344Z,7.54
2023-04-15T12:49:53.147Z,7.57
2023-04-15T12:50:53.149Z,7.61
2023-04-15T12:51:53.129Z,7.63
2023-04-15T12:52:53.119Z,7.67
2023-04-15T12:53:53.133Z,7.69
2023-04-15T12:54:53.104Z,7.70
2023-04-15T12:55:53.085Z,7.72
2023-04-15T12:56:53.077Z,7.72
2023-04-15T12:57:53.083Z,7.69
2023-04-15T12:58:53.291Z,7.73
2023-04-15T12:59:53.062Z,7.73
2023-04-15T13:00:53.062Z,7.76
2023-04-15T13:01:53.090Z,7.73
2023-04-15T13:02:53.084Z,7.73
2023-04-15T13:03:53.476Z,7.73
2023-04-15T13:04:53.018Z,7.69
2023-04-15T13:05:52.991Z,7.72
2023-04-15T13:06:52.980Z,7.70
2023-04-15T13:07:53.424Z,7.72
2023-04-15T13:08:58.291Z,7.70
2023-04-15T13:09:52.952Z,7.70
2023-04-15T13:10:52.929Z,7.73
2023-04-15T13:11:53.053Z,7.73
2023-04-15T13:12:53.295Z,7.72
2023-04-15T13:13:53.437Z,7.70
2023-04-15T13:14:52.908Z,7.72
2023-04-15T13:15:52.913Z,7.69
2023-04-15T13:16:52.864Z,7.69
2023-04-15T13:17:52.925Z,7.70